createdAt,value
2019-04-28T11:52:20.518Z,13.92
2019-04-28T11:54:58.196Z,13.95
2019-04-28T11:57:31.991Z,14.06
2019-04-28T12:00:18.525Z,14.08
2019-04-28T12:02:51.108Z,14.14
2019-04-28T12:05:34.599Z,14.30
2019-04-28T12:08:09.165Z,14.37
2019-04-28T12:10:58.737Z,14.57
2019-04-28T12:13:48.722Z,14.93
2019-04-28T12:16:45.706Z,15.30
2019-04-28T12:19:37.583Z,15.60
2019-04-28T12:22:10.724Z,16.00
2019-04-28T12:24:44.663Z,16.32
2019-04-28T12:27:28.019Z,16.47
2019-04-28T12:30:05.678Z,16.55
2019-04-28T12:32:40.136Z,16.53
2019-04-28T12:35:15.028Z,16.49
2019-04-28T12:37:50.784Z,16.46
2019-04-28T12:40:25.266Z,16.43
2019-04-28T12:42:57.971Z,16.37
2019-04-28T12:45:35.141Z,16.22
2019-04-28T12:48:09.691Z,16.05
2019-04-28T12:50:49.819Z,15.86
2019-04-28T12:53:27.670Z,15.44
2019-04-28T12:56:01.529Z,15.14
2019-04-28T12:58:37.384Z,14.79
2019-04-28T13:01:24.043Z,14.46
2019-04-28T13:04:10.641Z,14.34
2019-04-28T13:07:01.379Z,14.23
2019-04-28T13:09:34.741Z,14.01
2019-04-28T13:12:13.646Z,13.76
2019-04-28T13:14:47.944Z,13.69
2019-04-28T13:17:29.509Z,13.54
2019-04-28T13:20:02.199Z,13.47
2019-04-28T13:22:37.609Z,13.41
2019-04-28T13:25:17.051Z,13.33
2019-04-28T13:27:50.688Z,13.34
2019-04-28T13:30:25.571Z,13.32
2019-04-28T13:32:59.886Z,13.29
2019-04-28T13:35:32.657Z,13.13
2019-04-28T13:38:05.212Z,12.98
2019-04-28T13:40:40.065Z,12.90
2019-04-28T13:43:17.334Z,12.84
2019-04-28T13:45:51.027Z,12.71
2019-04-28T13:48:24.561Z,12.66
2019-04-28T13:50:58.992Z,12.59
2019-04-28T13:53:32.262Z,12.50
2019-04-28T13:56:05.148Z,12.42
2019-04-28T13:58:42.062Z,12.39
2019-04-28T14:01:35.799Z,12.30
2019-04-28T14:04:28.648Z,12.29
2019-04-28T14:07:06.025Z,12.37
2019-04-28T14:09:40.104Z,12.41
2019-04-28T14:12:12.897Z,12.37
2019-04-28T14:14:47.767Z,12.25
2019-04-28T14:17:21.569Z,12.20
2019-04-28T14:19:54.241Z,12.01
2019-04-28T14:22:27.224Z,11.82
2019-04-28T14:25:01.158Z,11.67
2019-04-28T14:27:35.398Z,11.53
2019-04-28T14:30:08.907Z,11.45
2019-04-28T14:32:46.435Z,11.51
2019-04-28T14:35:22.795Z,11.68
2019-04-28T14:37:56.673Z,11.84
2019-04-28T14:40:29.413Z,11.98
2019-04-28T14:43:02.510Z,12.11
2019-04-28T14:45:37.658Z,12.26
2019-04-28T14:48:10.368Z,12.42
2019-04-28T14:50:43.465Z,12.53
2019-04-28T14:53:16.720Z,12.60
2019-04-28T14:55:52.083Z,12.74
2019-04-28T14:58:25.721Z,12.88
2019-04-28T15:01:12.419Z,13.04
2019-04-28T15:03:52.939Z,13.21
2019-04-28T15:06:34.014Z,13.43
2019-04-28T15:09:27.118Z,13.67
2019-04-28T15:12:11.928Z,13.96
2019-04-28T15:14:45.411Z,14.13
2019-04-28T15:17:19.653Z,14.25
2019-04-28T15:19:52.612Z,14.32
2019-04-28T15:22:26.664Z,14.47
2019-04-28T15:25:01.749Z,14.66
2019-04-28T15:27:41.449Z,14.93
2019-04-28T15:30:19.905Z,15.15
2019-04-28T15:32:52.683Z,15.54
2019-04-28T15:35:25.267Z,15.95
2019-04-28T15:37:58.184Z,16.43
2019-04-28T15:40:30.847Z,16.92
2019-04-28T15:43:03.387Z,17.22
2019-04-28T15:45:36.101Z,17.30
2019-04-28T15:48:08.779Z,17.26
2019-04-28T15:50:41.359Z,17.20
2019-04-28T15:53:15.107Z,17.34
2019-04-28T15:56:00.413Z,17.54
2019-04-28T15:58:34.036Z,17.66
2019-04-28T16:01:10.535Z,17.71
2019-04-28T16:03:45.200Z,17.92
2019-04-28T16:06:19.396Z,18.15
2019-04-28T16:08:54.164Z,18.17
2019-04-28T16:11:28.998Z,17.92
2019-04-28T16:14:03.809Z,17.95
2019-04-28T16:16:37.014Z,18.07
2019-04-28T16:19:28.622Z,18.18
2019-04-28T16:22:02.012Z,18.19
2019-04-28T16:24:36.233Z,18.15
2019-04-28T16:27:09.826Z,18.08
2019-04-28T16:29:43.239Z,18.11
2019-04-28T16:32:15.855Z,18.24
2019-04-28T16:34:49.503Z,18.32
2019-04-28T16:37:23.234Z,18.08
2019-04-28T16:39:57.121Z,17.89
2019-04-28T16:42:35.077Z,17.90
2019-04-28T16:45:21.883Z,17.90
2019-04-28T16:47:55.299Z,17.81
2019-04-28T16:50:34.565Z,17.68
2019-04-28T16:53:08.223Z,17.68
2019-04-28T16:56:05.141Z,17.55
2019-04-28T16:58:46.046Z,17.31
2019-04-28T17:01:42.043Z,16.86
2019-04-28T17:04:16.637Z,16.58
2019-04-28T17:06:49.838Z,16.39
2019-04-28T17:09:26.158Z,16.40
2019-04-28T17:11:59.340Z,16.67
2019-04-28T17:14:31.959Z,16.71
2019-04-28T17:17:04.502Z,16.69
2019-04-28T17:19:38.924Z,16.54
2019-04-28T17:22:13.303Z,16.48
2019-04-28T17:24:47.182Z,16.29
2019-04-28T17:27:19.755Z,16.08
2019-04-28T17:29:53.489Z,16.01
2019-04-28T17:32:28.769Z,15.99
2019-04-28T17:35:02.424Z,16.00
2019-04-28T17:37:35.744Z,16.02
2019-04-28T17:40:13.853Z,16.09
2019-04-28T17:42:47.503Z,16.01
2019-04-28T17:45:22.110Z,15.92
2019-04-28T17:48:05.338Z,15.83
2019-04-28T17:50:39.103Z,15.75
2019-04-28T17:53:13.178Z,15.74
2019-04-28T17:55:46.778Z,15.70
2019-04-28T17:58:22.700Z,15.70
2019-04-28T18:01:17.285Z,15.57
2019-04-28T18:04:12.583Z,15.44
2019-04-28T18:06:51.712Z,15.33
2019-04-28T18:09:26.135Z,15.27
2019-04-28T18:11:58.835Z,15.21
2019-04-28T18:14:33.180Z,15.10
2019-04-28T18:17:26.488Z,14.98
2019-04-28T18:19:59.143Z,14.82
2019-04-28T18:22:32.458Z,14.70
2019-04-28T18:25:06.877Z,14.56
2019-04-28T18:27:39.562Z,14.49
2019-04-28T18:30:19.316Z,14.26
2019-04-28T18:33:10.338Z,14.05
2019-04-28T18:35:49.255Z,13.87
2019-04-28T18:38:35.268Z,13.72
2019-04-28T18:41:32.094Z,13.57
2019-04-28T18:44:19.379Z,13.52
2019-04-28T18:46:52.019Z,13.36
2019-04-28T18:49:25.921Z,13.19
2019-04-28T18:51:59.181Z,13.05
2019-04-28T18:54:35.307Z,12.95
2019-04-28T18:57:09.496Z,12.81
2019-04-28T18:59:43.863Z,12.69
2019-04-28T19:02:31.683Z,12.54
2019-04-28T19:05:06.895Z,12.44
2019-04-28T19:07:46.443Z,12.46
2019-04-28T19:10:31.044Z,12.30
2019-04-28T19:13:09.578Z,12.15
2019-04-28T19:16:02.640Z,12.19
2019-04-28T19:18:38.939Z,12.05
2019-04-28T19:21:12.982Z,11.98
2019-04-28T19:23:47.477Z,11.93
2019-04-28T19:26:20.124Z,11.83
2019-04-28T19:28:54.827Z,11.75
2019-04-28T19:31:29.826Z,11.66
2019-04-28T19:34:02.759Z,11.54
2019-04-28T19:36:36.233Z,11.44
2019-04-28T19:39:10.030Z,11.34
2019-04-28T19:41:42.791Z,11.24
2019-04-28T19:44:16.856Z,11.16
2019-04-28T19:46:52.751Z,11.11
2019-04-28T19:49:25.395Z,11.21
2019-04-28T19:51:58.344Z,11.13
2019-04-28T19:55:01.069Z,11.08
2019-04-28T19:57:43.701Z,10.99
2019-04-28T20:00:29.630Z,10.91
2019-04-28T20:03:02.255Z,10.80
2019-04-28T20:05:35.996Z,10.72
2019-04-28T20:08:12.680Z,10.65
2019-04-28T20:10:45.211Z,10.60
2019-04-28T20:13:17.844Z,10.53
2019-04-28T20:15:55.724Z,10.48
2019-04-28T20:18:29.649Z,10.42
2019-04-28T20:21:03.377Z,10.34
2019-04-28T20:23:36.386Z,10.25
2019-04-28T20:26:09.589Z,10.18
2019-04-28T20:28:42.775Z,10.12
2019-04-28T20:31:18.441Z,10.08
2019-04-28T20:33:51.648Z,10.04
2019-04-28T20:36:38.968Z,10.07
2019-04-28T20:39:24.112Z,10.07
2019-04-28T20:42:18.742Z,10.04
2019-04-28T20:44:54.678Z,10.03
2019-04-28T20:47:27.289Z,10.02
2019-04-28T20:50:00.240Z,10.04
2019-04-28T20:52:32.960Z,10.04
2019-04-28T20:55:09.137Z,10.05
2019-04-28T20:57:43.419Z,10.02
2019-04-28T21:00:17.657Z,9.99
2019-04-28T21:02:51.064Z,9.92
2019-04-28T21:05:24.190Z,9.87
2019-04-28T21:07:57.555Z,9.82
2019-04-28T21:10:37.696Z,9.77
2019-04-28T21:13:12.234Z,9.86
2019-04-28T21:15:44.768Z,9.76
2019-04-28T21:18:18.716Z,9.71
2019-04-28T21:20:51.236Z,9.68
2019-04-28T21:23:24.419Z,9.62
2019-04-28T21:26:00.729Z,9.57
2019-04-28T21:28:36.354Z,9.51
2019-04-28T21:31:09.749Z,9.51
2019-04-28T21:33:43.135Z,9.44
2019-04-28T21:36:18.887Z,9.38
2019-04-28T21:38:53.863Z,9.44
2019-04-28T21:41:27.033Z,9.34
2019-04-28T21:44:14.736Z,9.25
2019-04-28T21:47:06.327Z,9.20
2019-04-28T21:49:41.005Z,9.15
2019-04-28T21:52:13.561Z,9.15
2019-04-28T21:54:47.572Z,9.10
2019-04-28T21:57:20.835Z,9.03
2019-04-28T21:59:56.160Z,9.03
2019-04-28T22:02:30.094Z,8.99
2019-04-28T22:05:02.864Z,8.98
2019-04-28T22:07:36.219Z,8.98
2019-04-28T22:10:09.852Z,8.97
2019-04-28T22:12:43.932Z,8.91
2019-04-28T22:15:18.357Z,8.93
2019-04-28T22:17:52.219Z,8.84
2019-04-28T22:20:25.754Z,8.81
2019-04-28T22:23:18.040Z,8.80
2019-04-28T22:25:51.800Z,8.84
2019-04-28T22:28:25.348Z,8.90
2019-04-28T22:30:59.091Z,8.95
2019-04-28T22:33:32.240Z,8.81
2019-04-28T22:36:04.799Z,8.72
2019-04-28T22:38:37.992Z,8.67
2019-04-28T22:41:10.652Z,8.62
2019-04-28T22:43:43.172Z,8.59
2019-04-28T22:46:15.982Z,8.57
2019-04-28T22:48:49.591Z,8.51
2019-04-28T22:51:22.808Z,8.46
2019-04-28T22:53:58.085Z,8.39
2019-04-28T22:56:41.708Z,8.33
2019-04-28T22:59:20.960Z,8.25
2019-04-28T23:02:00.593Z,8.32
2019-04-28T23:04:39.693Z,8.26
2019-04-28T23:07:12.298Z,8.36
2019-04-28T23:09:46.148Z,8.31
2019-04-28T23:12:19.975Z,8.42
2019-04-28T23:14:52.489Z,8.35
2019-04-28T23:17:25.345Z,8.35
2019-04-28T23:19:58.056Z,8.32
2019-04-28T23:22:47.176Z,8.24
2019-04-28T23:25:21.002Z,8.11
2019-04-28T23:27:54.255Z,8.07
2019-04-28T23:30:42.335Z,8.03
2019-04-28T23:33:14.868Z,7.95
2019-04-28T23:35:49.266Z,7.87
2019-04-28T23:38:22.965Z,7.82
2019-04-28T23:41:15.072Z,7.80
2019-04-28T23:44:00.372Z,7.94
2019-04-28T23:46:38.718Z,7.92
2019-04-28T23:49:14.496Z,8.01
2019-04-28T23:52:02.726Z,7.98
2019-04-28T23:54:37.098Z,7.91
2019-04-28T23:57:10.773Z,7.86
2019-04-28T23:59:44.795Z,7.85
